SAW weather

Sabiha Gökçen International Airport
Istanbul, İstanbul Province, Turkey

Public forecast

Using degrees Celsius for public forecast. Weather courtesy of forecast.io.

Current aviation weather report (METAR) for Sabiha Gökçen International Airport

Retrieved 2020/02/27 11:50 UTC (19 minutes ago):

LTFJ 271150Z 24016KT 9999 SCT035 BKN120 18/07 Q1005 NOSIG RMK RWY24 22012KT

Aviation forecast (TAF) for Sabiha Gökçen International Airport

Retrieved 2020/02/27 12:00 UTC (9 minutes ago):

TAF LTFJ 271040Z 2712/2812 24020KT 9999 SCT035 BKN100 TEMPO 2712/2716 26025G38KT -TSRA FEW015CB BKN025 TEMPO 2716/2719 -SHRA FEW020CB BKN025 BECMG 2722/2802 VRB02KT CAVOK